sensor_id;sensor_type;location;lat;lon;timestamp;pressure;altitude;pressure_sealevel;temperature;humidity
29909;BME280;36247;51.952;6.146;2023-05-12T00:00:15;101498.31;;;12.16;100.00
29909;BME280;36247;51.952;6.146;2023-05-12T00:02:43;101492.25;;;12.22;100.00
29909;BME280;36247;51.952;6.146;2023-05-12T00:05:10;101492.94;;;12.11;100.00
29909;BME280;36247;51.952;6.146;2023-05-12T00:07:35;101497.31;;;12.08;100.00
29909;BME280;36247;51.952;6.146;2023-05-12T00:10:03;101486.81;;;12.15;100.00
29909;BME280;36247;51.952;6.146;2023-05-12T00:12:31;101485.78;;;12.07;100.00
29909;BME280;36247;51.952;6.146;2023-05-12T00:14:59;101484.06;;;12.09;100.00
29909;BME280;36247;51.952;6.146;2023-05-12T00:17:25;101485.03;;;12.14;100.00
29909;BME280;36247;51.952;6.146;2023-05-12T00:19:52;101486.47;;;11.97;100.00
29909;BME280;36247;51.952;6.146;2023-05-12T00:22:18;101483.00;;;12.01;100.00
29909;BME280;36247;51.952;6.146;2023-05-12T00:24:43;101477.59;;;11.95;100.00
29909;BME280;36247;51.952;6.146;2023-05-12T00:27:10;101484.88;;;12.05;100.00
29909;BME280;36247;51.952;6.146;2023-05-12T00:29:36;101474.25;;;12.05;100.00
29909;BME280;36247;51.952;6.146;2023-05-12T00:32:07;101473.13;;;11.94;100.00
29909;BME280;36247;51.952;6.146;2023-05-12T00:34:33;101475.84;;;11.97;100.00
29909;BME280;36247;51.952;6.146;2023-05-12T00:36:58;101469.78;;;12.04;100.00
29909;BME280;36247;51.952;6.146;2023-05-12T00:39:24;101465.22;;;11.97;100.00
29909;BME280;36247;51.952;6.146;2023-05-12T00:41:54;101471.28;;;11.90;100.00
29909;BME280;36247;51.952;6.146;2023-05-12T00:44:21;101466.66;;;11.79;100.00
29909;BME280;36247;51.952;6.146;2023-05-12T00:46:46;101464.06;;;11.82;100.00
29909;BME280;36247;51.952;6.146;2023-05-12T00:49:12;101457.84;;;11.82;100.00
29909;BME280;36247;51.952;6.146;2023-05-12T00:51:38;101467.56;;;11.81;100.00
29909;BME280;36247;51.952;6.146;2023-05-12T00:54:06;101460.50;;;11.82;100.00
29909;BME280;36247;51.952;6.146;2023-05-12T00:56:33;101462.31;;;11.85;100.00
29909;BME280;36247;51.952;6.146;2023-05-12T00:59:06;101449.06;;;11.86;100.00
29909;BME280;36247;51.952;6.146;2023-05-12T01:01:35;101454.31;;;11.83;100.00
29909;BME280;36247;51.952;6.146;2023-05-12T01:04:01;101457.81;;;11.80;100.00
29909;BME280;36247;51.952;6.146;2023-05-12T01:09:10;101449.50;;;11.62;100.00
29909;BME280;36247;51.952;6.146;2023-05-12T01:11:37;101451.56;;;11.77;100.00
29909;BME280;36247;51.952;6.146;2023-05-12T01:14:05;101450.75;;;11.79;100.00
29909;BME280;36247;51.952;6.146;2023-05-12T01:16:47;101449.50;;;11.62;100.00
29909;BME280;36247;51.952;6.146;2023-05-12T01:21:55;101452.38;;;11.73;100.00
29909;BME280;36247;51.952;6.146;2023-05-12T01:24:23;101445.47;;;11.81;100.00
29909;BME280;36247;51.952;6.146;2023-05-12T01:26:51;101439.13;;;11.74;100.00
29909;BME280;36247;51.952;6.146;2023-05-12T01:29:18;101437.31;;;11.73;100.00
29909;BME280;36247;51.952;6.146;2023-05-12T01:31:45;101442.75;;;11.78;100.00
29909;BME280;36247;51.952;6.146;2023-05-12T01:34:14;101438.94;;;11.65;100.00
29909;BME280;36247;51.952;6.146;2023-05-12T01:36:40;101440.69;;;11.63;100.00
29909;BME280;36247;51.952;6.146;2023-05-12T01:39:06;101447.13;;;11.77;100.00
29909;BME280;36247;51.952;6.146;2023-05-12T01:41:32;101446.09;;;11.68;100.00
29909;BME280;36247;51.952;6.146;2023-05-12T01:44:00;101434.72;;;11.75;100.00
29909;BME280;36247;51.952;6.146;2023-05-12T01:46:25;101436.31;;;11.65;100.00
29909;BME280;36247;51.952;6.146;2023-05-12T01:48:53;101439.91;;;11.69;100.00
29909;BME280;36247;51.952;6.146;2023-05-12T01:51:19;101433.69;;;11.68;100.00
29909;BME280;36247;51.952;6.146;2023-05-12T01:53:45;101437.41;;;11.76;100.00
29909;BME280;36247;51.952;6.146;2023-05-12T01:56:11;101437.28;;;11.70;100.00
29909;BME280;36247;51.952;6.146;2023-05-12T01:58:37;101443.38;;;11.64;100.00
29909;BME280;36247;51.952;6.146;2023-05-12T02:01:03;101439.88;;;11.67;100.00
29909;BME280;36247;51.952;6.146;2023-05-12T02:03:30;101428.28;;;11.62;100.00
29909;BME280;36247;51.952;6.146;2023-05-12T02:05:56;101432.00;;;11.73;100.00
29909;BME280;36247;51.952;6.146;2023-05-12T02:08:22;101433.81;;;11.74;100.00
29909;BME280;36247;51.952;6.146;2023-05-12T02:10:48;101434.53;;;11.65;100.00
29909;BME280;36247;51.952;6.146;2023-05-12T02:13:13;101436.44;;;11.73;100.00
29909;BME280;36247;51.952;6.146;2023-05-12T02:15:39;101436.63;;;11.83;100.00
29909;BME280;36247;51.952;6.146;2023-05-12T02:18:06;101427.81;;;11.85;100.00
29909;BME280;36247;51.952;6.146;2023-05-12T02:20:35;101436.44;;;11.73;100.00
29909;BME280;36247;51.952;6.146;2023-05-12T02:23:01;101435.53;;;11.71;100.00
29909;BME280;36247;51.952;6.146;2023-05-12T02:25:31;101438.25;;;11.75;100.00
29909;BME280;36247;51.952;6.146;2023-05-12T02:27:56;101426.72;;;11.73;100.00
29909;BME280;36247;51.952;6.146;2023-05-12T02:30:22;101428.50;;;11.74;100.00
29909;BME280;36247;51.952;6.146;2023-05-12T02:32:47;101430.25;;;11.72;100.00
29909;BME280;36247;51.952;6.146;2023-05-12T02:35:13;101432.97;;;11.75;100.00
29909;BME280;36247;51.952;6.146;2023-05-12T02:37:40;101437.31;;;11.73;100.00
29909;BME280;36247;51.952;6.146;2023-05-12T02:40:06;101430.31;;;11.75;100.00
29909;BME280;36247;51.952;6.146;2023-05-12T02:42:35;101429.34;;;11.73;100.00
29909;BME280;36247;51.952;6.146;2023-05-12T02:45:03;101430.19;;;11.69;100.00
29909;BME280;36247;51.952;6.146;2023-05-12T02:47:31;101433.88;;;11.77;100.00
29909;BME280;36247;51.952;6.146;2023-05-12T02:49:58;101425.00;;;11.75;100.00
29909;BME280;36247;51.952;6.146;2023-05-12T02:52:24;101424.13;;;11.76;100.00
29909;BME280;36247;51.952;6.146;2023-05-12T02:54:50;101417.19;;;11.85;100.00
29909;BME280;36247;51.952;6.146;2023-05-12T02:57:16;101428.63;;;11.80;100.00
29909;BME280;36247;51.952;6.146;2023-05-12T02:59:41;101419.78;;;11.81;100.00
29909;BME280;36247;51.952;6.146;2023-05-12T03:02:07;101419.84;;;11.85;100.00
29909;BME280;36247;51.952;6.146;2023-05-12T03:04:33;101417.25;;;11.88;100.00
29909;BME280;36247;51.952;6.146;2023-05-12T03:07:01;101415.47;;;11.88;100.00
29909;BME280;36247;51.952;6.146;2023-05-12T03:09:26;101423.56;;;11.93;100.00
29909;BME280;36247;51.952;6.146;2023-05-12T03:11:52;101415.78;;;12.04;100.00
29909;BME280;36247;51.952;6.146;2023-05-12T03:14:18;101410.47;;;12.04;100.00
29909;BME280;36247;51.952;6.146;2023-05-12T03:16:44;101413.16;;;12.05;100.00
29909;BME280;36247;51.952;6.146;2023-05-12T03:19:09;101422.81;;;12.02;100.00
29909;BME280;36247;51.952;6.146;2023-05-12T03:21:35;101424.63;;;12.03;100.00
29909;BME280;36247;51.952;6.146;2023-05-12T03:24:03;101422.94;;;12.08;100.00
29909;BME280;36247;51.952;6.146;2023-05-12T03:26:31;101413.19;;;12.07;100.00
29909;BME280;36247;51.952;6.146;2023-05-12T03:28:58;101422.84;;;12.03;100.00
29909;BME280;36247;51.952;6.146;2023-05-12T03:31:24;101421.16;;;12.07;100.00
29909;BME280;36247;51.952;6.146;2023-05-12T03:33:50;101428.28;;;12.09;100.00
29909;BME280;36247;51.952;6.146;2023-05-12T03:36:16;101424.78;;;12.13;100.00
29909;BME280;36247;51.952;6.146;2023-05-12T03:38:41;101423.06;;;12.15;100.00
29909;BME280;36247;51.952;6.146;2023-05-12T03:41:07;101424.72;;;12.09;100.00
29909;BME280;36247;51.952;6.146;2023-05-12T03:43:35;101427.41;;;12.10;100.00
29909;BME280;36247;51.952;6.146;2023-05-12T03:46:02;101423.03;;;12.12;100.00
29909;BME280;36247;51.952;6.146;2023-05-12T03:48:29;101420.38;;;12.14;100.00
29909;BME280;36247;51.952;6.146;2023-05-12T03:50:55;101419.50;;;12.15;100.00
29909;BME280;36247;51.952;6.146;2023-05-12T03:53:20;101426.56;;;12.13;100.00
29909;BME280;36247;51.952;6.146;2023-05-12T03:55:46;101429.34;;;12.21;100.00
29909;BME280;36247;51.952;6.146;2023-05-12T03:58:11;101423.34;;;12.32;100.00
29909;BME280;36247;51.952;6.146;2023-05-12T04:00:37;101426.72;;;12.24;100.00
29909;BME280;36247;51.952;6.146;2023-05-12T04:03:03;101421.50;;;12.28;100.00
29909;BME280;36247;51.952;6.146;2023-05-12T04:05:28;101428.56;;;12.26;100.00
29909;BME280;36247;51.952;6.146;2023-05-12T04:07:54;101426.72;;;12.22;100.00
29909;BME280;36247;51.952;6.146;2023-05-12T04:10:20;101432.19;;;12.33;100.00
29909;BME280;36247;51.952;6.146;2023-05-12T04:12:45;101428.59;;;12.29;100.00
29909;BME280;36247;51.952;6.146;2023-05-12T04:15:11;101445.56;;;12.36;100.00
29909;BME280;36247;51.952;6.146;2023-05-12T04:17:40;101452.78;;;12.46;100.00
29909;BME280;36247;51.952;6.146;2023-05-12T04:20:06;101450.06;;;12.43;100.00
29909;BME280;36247;51.952;6.146;2023-05-12T04:22:33;101441.31;;;12.49;100.00
29909;BME280;36247;51.952;6.146;2023-05-12T04:24:58;101448.41;;;12.50;100.00
29909;BME280;36247;51.952;6.146;2023-05-12T04:27:24;101442.28;;;12.54;100.00
29909;BME280;36247;51.952;6.146;2023-05-12T04:29:50;101443.16;;;12.53;100.00
29909;BME280;36247;51.952;6.146;2023-05-12T04:32:16;101449.25;;;12.47;100.00
29909;BME280;36247;51.952;6.146;2023-05-12T04:34:44;101444.91;;;12.51;100.00
29909;BME280;36247;51.952;6.146;2023-05-12T04:37:09;101445.88;;;12.58;100.00
29909;BME280;36247;51.952;6.146;2023-05-12T04:39:35;101437.94;;;12.61;100.00
29909;BME280;36247;51.952;6.146;2023-05-12T04:42:01;101446.81;;;12.61;100.00
29909;BME280;36247;51.952;6.146;2023-05-12T04:44:31;101442.47;;;12.66;100.00
29909;BME280;36247;51.952;6.146;2023-05-12T04:46:58;101451.34;;;12.68;100.00
29909;BME280;36247;51.952;6.146;2023-05-12T04:49:24;101457.63;;;12.72;100.00
29909;BME280;36247;51.952;6.146;2023-05-12T04:51:49;101456.72;;;12.72;100.00
29909;BME280;36247;51.952;6.146;2023-05-12T04:54:16;101461.31;;;12.83;100.00
29909;BME280;36247;51.952;6.146;2023-05-12T04:56:41;101456.94;;;12.87;100.00
29909;BME280;36247;51.952;6.146;2023-05-12T04:59:07;101447.19;;;12.87;100.00
29909;BME280;36247;51.952;6.146;2023-05-12T05:01:33;101463.16;;;12.87;100.00
29909;BME280;36247;51.952;6.146;2023-05-12T05:03:59;101462.34;;;12.92;100.00
29909;BME280;36247;51.952;6.146;2023-05-12T05:06:25;101473.88;;;12.94;100.00
29909;BME280;36247;51.952;6.146;2023-05-12T05:08:51;101472.25;;;13.03;100.00
29909;BME280;36247;51.952;6.146;2023-05-12T05:11:18;101473.94;;;12.98;100.00
29909;BME280;36247;51.952;6.146;2023-05-12T05:13:44;101481.97;;;13.03;100.00
29909;BME280;36247;51.952;6.146;2023-05-12T05:16:10;101471.38;;;13.06;100.00
29909;BME280;36247;51.952;6.146;2023-05-12T05:18:36;101479.44;;;13.11;100.00
29909;BME280;36247;51.952;6.146;2023-05-12T05:21:03;101483.06;;;13.16;100.00
29909;BME280;36247;51.952;6.146;2023-05-12T05:23:28;101486.66;;;13.22;100.00
29909;BME280;36247;51.952;6.146;2023-05-12T05:25:54;101490.13;;;13.14;100.00
29909;BME280;36247;51.952;6.146;2023-05-12T05:28:20;101487.56;;;13.21;100.00
29909;BME280;36247;51.952;6.146;2023-05-12T05:30:46;101488.50;;;13.27;100.00
29909;BME280;36247;51.952;6.146;2023-05-12T05:33:12;101498.28;;;13.28;100.00
29909;BME280;36247;51.952;6.146;2023-05-12T05:35:38;101498.41;;;13.34;100.00
29909;BME280;36247;51.952;6.146;2023-05-12T05:38:07;101513.63;;;13.44;100.00
29909;BME280;36247;51.952;6.146;2023-05-12T05:40:33;101496.63;;;13.34;100.00
29909;BME280;36247;51.952;6.146;2023-05-12T05:42:58;101513.50;;;13.35;100.00
29909;BME280;36247;51.952;6.146;2023-05-12T05:45:25;101508.13;;;13.33;100.00
29909;BME280;36247;51.952;6.146;2023-05-12T05:47:51;101516.16;;;13.35;100.00
29909;BME280;36247;51.952;6.146;2023-05-12T05:50:18;101520.50;;;13.31;100.00
29909;BME280;36247;51.952;6.146;2023-05-12T05:52:44;101521.44;;;13.33;100.00
29909;BME280;36247;51.952;6.146;2023-05-12T05:55:10;101521.47;;;13.35;100.00
29909;BME280;36247;51.952;6.146;2023-05-12T05:57:36;101531.25;;;13.37;100.00
29909;BME280;36247;51.952;6.146;2023-05-12T06:00:06;101531.28;;;13.39;100.00
29909;BME280;36247;51.952;6.146;2023-05-12T06:02:44;101541.13;;;13.46;100.00
29909;BME280;36247;51.952;6.146;2023-05-12T06:05:14;101541.13;;;13.45;100.00
29909;BME280;36247;51.952;6.146;2023-05-12T06:07:40;101544.69;;;13.45;100.00
29909;BME280;36247;51.952;6.146;2023-05-12T06:10:06;101544.78;;;13.53;100.00
29909;BME280;36247;51.952;6.146;2023-05-12T06:12:33;101548.31;;;13.53;100.00
29909;BME280;36247;51.952;6.146;2023-05-12T06:15:00;101553.75;;;13.63;100.00
29909;BME280;36247;51.952;6.146;2023-05-12T06:17:25;101552.09;;;13.69;100.00
29909;BME280;36247;51.952;6.146;2023-05-12T06:19:51;101558.28;;;13.70;100.00
29909;BME280;36247;51.952;6.146;2023-05-12T06:22:17;101558.38;;;13.76;100.00
29909;BME280;36247;51.952;6.146;2023-05-12T06:24:44;101565.53;;;13.80;100.00
29909;BME280;36247;51.952;6.146;2023-05-12T06:27:10;101566.66;;;13.99;100.00
29909;BME280;36247;51.952;6.146;2023-05-12T06:29:35;101556.97;;;14.09;100.00
29909;BME280;36247;51.952;6.146;2023-05-12T06:32:01;101555.16;;;14.05;100.00
29909;BME280;36247;51.952;6.146;2023-05-12T06:34:27;101564.09;;;14.10;100.00
29909;BME280;36247;51.952;6.146;2023-05-12T06:36:53;101559.84;;;14.27;100.00
29909;BME280;36247;51.952;6.146;2023-05-12T06:39:19;101559.03;;;14.33;100.00
29909;BME280;36247;51.952;6.146;2023-05-12T06:41:45;101562.72;;;14.52;100.00
29909;BME280;36247;51.952;6.146;2023-05-12T06:44:18;101575.31;;;14.62;100.00
29909;BME280;36247;51.952;6.146;2023-05-12T06:46:44;101569.94;;;14.61;100.00
29909;BME280;36247;51.952;6.146;2023-05-12T06:49:10;101574.47;;;14.70;100.00
29909;BME280;36247;51.952;6.146;2023-05-12T06:51:36;101572.66;;;14.66;100.00
29909;BME280;36247;51.952;6.146;2023-05-12T06:54:01;101587.97;;;14.90;100.00
29909;BME280;36247;51.952;6.146;2023-05-12T06:56:33;101583.56;;;14.92;100.00
29909;BME280;36247;51.952;6.146;2023-05-12T06:59:01;101580.88;;;14.92;100.00
29909;BME280;36247;51.952;6.146;2023-05-12T07:01:29;101584.50;;;15.03;100.00
29909;BME280;36247;51.952;6.146;2023-05-12T07:03:56;101584.53;;;15.05;100.00
29909;BME280;36247;51.952;6.146;2023-05-12T07:06:22;101580.13;;;15.08;100.00
29909;BME280;36247;51.952;6.146;2023-05-12T07:08:47;101593.44;;;15.05;100.00
29909;BME280;36247;51.952;6.146;2023-05-12T07:11:13;101590.84;;;15.16;100.00
29909;BME280;36247;51.952;6.146;2023-05-12T07:13:45;101589.97;;;15.19;100.00
29909;BME280;36247;51.952;6.146;2023-05-12T07:16:12;101585.56;;;15.25;100.00
29909;BME280;36247;51.952;6.146;2023-05-12T07:18:38;101598.09;;;15.40;100.00
29909;BME280;36247;51.952;6.146;2023-05-12T07:21:06;101596.34;;;15.38;100.00
29909;BME280;36247;51.952;6.146;2023-05-12T07:23:35;101595.56;;;15.56;100.00
29909;BME280;36247;51.952;6.146;2023-05-12T07:26:03;101599.03;;;15.44;100.00
29909;BME280;36247;51.952;6.146;2023-05-12T07:28:33;101599.97;;;15.52;100.00
29909;BME280;36247;51.952;6.146;2023-05-12T07:31:04;101594.69;;;15.64;100.00
29909;BME280;36247;51.952;6.146;2023-05-12T07:33:34;101596.63;;;15.90;100.00
29909;BME280;36247;51.952;6.146;2023-05-12T07:36:01;101602.75;;;15.71;100.00
29909;BME280;36247;51.952;6.146;2023-05-12T07:38:26;101598.38;;;15.85;100.00
29909;BME280;36247;51.952;6.146;2023-05-12T07:40:53;101596.69;;;16.10;100.00
29909;BME280;36247;51.952;6.146;2023-05-12T07:43:18;101587.78;;;16.16;100.00
29909;BME280;36247;51.952;6.146;2023-05-12T07:45:44;101589.53;;;16.04;100.00
29909;BME280;36247;51.952;6.146;2023-05-12T07:48:10;101597.63;;;16.20;100.00
29909;BME280;36247;51.952;6.146;2023-05-12T07:50:36;101598.50;;;16.25;100.00
29909;BME280;36247;51.952;6.146;2023-05-12T07:53:03;101594.09;;;16.53;100.00
29909;BME280;36247;51.952;6.146;2023-05-12T07:55:29;101588.75;;;16.66;100.00
29909;BME280;36247;51.952;6.146;2023-05-12T07:57:54;101597.69;;;16.63;100.00
29909;BME280;36247;51.952;6.146;2023-05-12T08:00:20;101596.81;;;17.10;100.00
29909;BME280;36247;51.952;6.146;2023-05-12T08:02:46;101597.72;;;16.89;100.00
29909;BME280;36247;51.952;6.146;2023-05-12T08:05:12;101596.84;;;16.89;100.00
29909;BME280;36247;51.952;6.146;2023-05-12T08:07:38;101594.13;;;16.78;100.00
29909;BME280;36247;51.952;6.146;2023-05-12T08:10:10;101599.50;;;17.07;100.00
29909;BME280;36247;51.952;6.146;2023-05-12T08:12:40;101611.94;;;17.41;100.00
29909;BME280;36247;51.952;6.146;2023-05-12T08:15:07;101603.94;;;17.36;100.00
29909;BME280;36247;51.952;6.146;2023-05-12T08:17:33;101609.16;;;17.78;100.00
29909;BME280;36247;51.952;6.146;2023-05-12T08:20:00;101608.22;;;17.85;100.00
29909;BME280;36247;51.952;6.146;2023-05-12T08:22:29;101609.16;;;17.76;100.00
29909;BME280;36247;51.952;6.146;2023-05-12T08:24:55;101619.94;;;17.56;100.00
29909;BME280;36247;51.952;6.146;2023-05-12T08:27:20;101615.50;;;17.43;100.00
29909;BME280;36247;51.952;6.146;2023-05-12T08:29:46;101619.84;;;17.86;100.00
29909;BME280;36247;51.952;6.146;2023-05-12T08:32:12;101623.50;;;17.63;100.00
29909;BME280;36247;51.952;6.146;2023-05-12T08:34:38;101622.66;;;17.30;100.00
29909;BME280;36247;51.952;6.146;2023-05-12T08:37:06;101631.59;;;17.41;100.00
29909;BME280;36247;51.952;6.146;2023-05-12T08:39:33;101633.38;;;17.28;100.00
29909;BME280;36247;51.952;6.146;2023-05-12T08:42:11;101640.47;;;17.63;100.00
29909;BME280;36247;51.952;6.146;2023-05-12T08:44:40;101651.19;;;17.67;100.00
29909;BME280;36247;51.952;6.146;2023-05-12T08:47:07;101638.63;;;17.83;100.00
29909;BME280;36247;51.952;6.146;2023-05-12T08:49:35;101635.88;;;18.03;100.00
29909;BME280;36247;51.952;6.146;2023-05-12T08:52:01;101634.16;;;17.89;100.00
29909;BME280;36247;51.952;6.146;2023-05-12T08:54:27;101653.84;;;17.68;100.00
29909;BME280;36247;51.952;6.146;2023-05-12T08:56:54;101651.03;;;18.13;100.00
29909;BME280;36247;51.952;6.146;2023-05-12T08:59:20;101650.22;;;17.88;100.00
29909;BME280;36247;51.952;6.146;2023-05-12T09:01:48;101655.53;;;18.03;100.00
29909;BME280;36247;51.952;6.146;2023-05-12T09:04:16;101652.91;;;17.91;100.00
29909;BME280;36247;51.952;6.146;2023-05-12T09:06:45;101653.72;;;18.11;100.00
29909;BME280;36247;51.952;6.146;2023-05-12T09:09:12;101656.44;;;18.04;100.00
29909;BME280;36247;51.952;6.146;2023-05-12T09:11:40;101655.53;;;18.05;100.00
29909;BME280;36247;51.952;6.146;2023-05-12T09:14:07;101660.91;;;18.03;100.00
29909;BME280;36247;51.952;6.146;2023-05-12T09:16:47;101660.97;;;17.80;100.00
29909;BME280;36247;51.952;6.146;2023-05-12T09:19:19;101663.59;;;18.00;100.00
29909;BME280;36247;51.952;6.146;2023-05-12T09:21:46;101672.50;;;18.10;100.00
29909;BME280;36247;51.952;6.146;2023-05-12T09:24:11;101667.22;;;17.96;100.00
29909;BME280;36247;51.952;6.146;2023-05-12T09:26:50;101668.97;;;18.00;100.00
29909;BME280;36247;51.952;6.146;2023-05-12T09:29:18;101667.06;;;18.27;100.00
29909;BME280;36247;51.952;6.146;2023-05-12T09:31:51;101675.25;;;17.96;100.00
29909;BME280;36247;51.952;6.146;2023-05-12T09:34:18;101677.94;;;17.97;100.00
29909;BME280;36247;51.952;6.146;2023-05-12T09:36:43;101676.16;;;17.95;100.00
29909;BME280;36247;51.952;6.146;2023-05-12T09:39:12;101670.72;;;18.06;100.00
29909;BME280;36247;51.952;6.146;2023-05-12T09:41:40;101668.94;;;18.06;100.00
29909;BME280;36247;51.952;6.146;2023-05-12T09:44:07;101665.31;;;18.15;100.00
29909;BME280;36247;51.952;6.146;2023-05-12T09:46:34;101680.59;;;17.97;100.00
29909;BME280;36247;51.952;6.146;2023-05-12T09:49:00;101678.78;;;18.03;100.00
29909;BME280;36247;51.952;6.146;2023-05-12T09:51:32;101675.25;;;17.99;100.00
29909;BME280;36247;51.952;6.146;2023-05-12T09:53:59;101685.94;;;18.04;100.00
29909;BME280;36247;51.952;6.146;2023-05-12T09:56:28;101677.88;;;18.11;100.00
29909;BME280;36247;51.952;6.146;2023-05-12T09:58:56;101696.72;;;17.93;100.00
29909;BME280;36247;51.952;6.146;2023-05-12T10:01:23;101682.34;;;18.09;100.00
29909;BME280;36247;51.952;6.146;2023-05-12T10:03:58;101672.44;;;18.25;100.00
29909;BME280;36247;51.952;6.146;2023-05-12T10:06:26;101684.13;;;18.10;100.00
29909;BME280;36247;51.952;6.146;2023-05-12T10:09:18;101684.84;;;18.46;100.00
29909;BME280;36247;51.952;6.146;2023-05-12T10:11:46;101683.88;;;18.57;100.00
29909;BME280;36247;51.952;6.146;2023-05-12T10:14:12;101687.34;;;18.77;100.00
29909;BME280;36247;51.952;6.146;2023-05-12T10:16:44;101687.44;;;18.65;100.00
29909;BME280;36247;51.952;6.146;2023-05-12T10:19:11;101684.81;;;18.56;100.00
29909;BME280;36247;51.952;6.146;2023-05-12T10:21:38;101683.00;;;18.58;100.00
29909;BME280;36247;51.952;6.146;2023-05-12T10:24:06;101681.75;;;19.14;100.00
29909;BME280;36247;51.952;6.146;2023-05-12T10:26:35;101685.22;;;19.23;100.00
29909;BME280;36247;51.952;6.146;2023-05-12T10:29:03;101683.66;;;18.95;100.00
29909;BME280;36247;51.952;6.146;2023-05-12T10:31:31;101678.31;;;18.92;100.00
29909;BME280;36247;51.952;6.146;2023-05-12T10:34:01;101682.75;;;18.98;100.00
29909;BME280;36247;51.952;6.146;2023-05-12T10:36:45;101678.56;;;19.67;100.00
29909;BME280;36247;51.952;6.146;2023-05-12T10:39:12;101671.09;;;20.67;100.00
29909;BME280;36247;51.952;6.146;2023-05-12T10:41:44;101685.03;;;21.46;100.00
29909;BME280;36247;51.952;6.146;2023-05-12T10:44:10;101677.69;;;21.03;100.00
29909;BME280;36247;51.952;6.146;2023-05-12T10:46:39;101680.25;;;21.12;100.00
29909;BME280;36247;51.952;6.146;2023-05-12T10:49:09;101675.97;;;22.00;100.00
29909;BME280;36247;51.952;6.146;2023-05-12T10:54:11;101668.06;;;22.74;100.00
29909;BME280;36247;51.952;6.146;2023-05-12T10:59:20;101662.72;;;23.09;100.00
29909;BME280;36247;51.952;6.146;2023-05-12T11:02:21;101658.56;;;22.56;100.00
29909;BME280;36247;51.952;6.146;2023-05-12T11:05:02;101669.94;;;21.36;100.00
29909;BME280;36247;51.952;6.146;2023-05-12T11:07:34;101673.84;;;21.18;100.00
29909;BME280;36247;51.952;6.146;2023-05-12T11:10:05;101675.53;;;21.25;100.00
29909;BME280;36247;51.952;6.146;2023-05-12T11:12:35;101676.44;;;21.76;100.00
29909;BME280;36247;51.952;6.146;2023-05-12T11:15:04;101675.41;;;21.31;100.00
29909;BME280;36247;51.952;6.146;2023-05-12T11:17:31;101671.78;;;20.80;100.00
29909;BME280;36247;51.952;6.146;2023-05-12T11:19:57;101679.53;;;21.00;100.00
29909;BME280;36247;51.952;6.146;2023-05-12T11:22:23;101672.41;;;21.52;100.00
29909;BME280;36247;51.952;6.146;2023-05-12T11:24:49;101675.06;;;21.53;100.00
29909;BME280;36247;51.952;6.146;2023-05-12T11:27:19;101673.56;;;21.83;100.00
29909;BME280;36247;51.952;6.146;2023-05-12T11:29:55;101680.22;;;22.11;100.00
29909;BME280;36247;51.952;6.146;2023-05-12T11:32:21;101685.03;;;22.40;100.00
29909;BME280;36247;51.952;6.146;2023-05-12T11:34:46;101675.66;;;23.32;100.00
29909;BME280;36247;51.952;6.146;2023-05-12T11:37:12;101672.31;;;23.22;100.00
29909;BME280;36247;51.952;6.146;2023-05-12T11:39:37;101674.78;;;24.28;100.00
29909;BME280;36247;51.952;6.146;2023-05-12T11:42:07;101665.84;;;24.85;100.00
29909;BME280;36247;51.952;6.146;2023-05-12T11:44:36;101669.28;;;24.32;100.00
29909;BME280;36247;51.952;6.146;2023-05-12T11:49:51;101683.25;;;22.80;100.00
29909;BME280;36247;51.952;6.146;2023-05-12T11:52:20;101683.00;;;22.89;100.00
29909;BME280;36247;51.952;6.146;2023-05-12T11:54:57;101672.59;;;22.74;100.00
29909;BME280;36247;51.952;6.146;2023-05-12T11:57:25;101682.69;;;22.64;100.00
29909;BME280;36247;51.952;6.146;2023-05-12T12:00:14;101679.78;;;22.73;100.00
29909;BME280;36247;51.952;6.146;2023-05-12T12:02:39;101674.25;;;22.78;100.00
29909;BME280;36247;51.952;6.146;2023-05-12T12:05:18;101678.19;;;23.02;100.00
29909;BME280;36247;51.952;6.146;2023-05-12T12:07:45;101686.25;;;22.66;100.00
29909;BME280;36247;51.952;6.146;2023-05-12T12:10:16;101689.72;;;22.30;100.00
29909;BME280;36247;51.952;6.146;2023-05-12T12:12:43;101688.91;;;22.25;100.00
29909;BME280;36247;51.952;6.146;2023-05-12T12:15:10;101691.28;;;22.44;100.00
29909;BME280;36247;51.952;6.146;2023-05-12T12:17:36;101692.16;;;22.83;100.00
29909;BME280;36247;51.952;6.146;2023-05-12T12:20:05;101690.84;;;22.62;100.00
29909;BME280;36247;51.952;6.146;2023-05-12T12:22:31;101690.72;;;23.04;100.00
29909;BME280;36247;51.952;6.146;2023-05-12T12:25:00;101692.75;;;22.96;100.00
29909;BME280;36247;51.952;6.146;2023-05-12T12:27:26;101700.53;;;22.71;100.00
29909;BME280;36247;51.952;6.146;2023-05-12T12:29:52;101699.38;;;22.83;100.00
29909;BME280;36247;51.952;6.146;2023-05-12T12:32:17;101698.59;;;23.15;100.00
29909;BME280;36247;51.952;6.146;2023-05-12T12:34:43;101695.53;;;22.93;100.00
29909;BME280;36247;51.952;6.146;2023-05-12T12:37:10;101695.81;;;23.20;100.00
29909;BME280;36247;51.952;6.146;2023-05-12T12:39:36;101700.63;;;22.68;100.00
29909;BME280;36247;51.952;6.146;2023-05-12T12:42:02;101694.69;;;22.89;100.00
29909;BME280;36247;51.952;6.146;2023-05-12T12:44:32;101694.06;;;23.17;100.00
29909;BME280;36247;51.952;6.146;2023-05-12T12:47:00;101696.97;;;23.10;100.00
29909;BME280;36247;51.952;6.146;2023-05-12T12:49:26;101704.25;;;23.04;100.00
29909;BME280;36247;51.952;6.146;2023-05-12T12:51:51;101694.81;;;23.22;100.00
29909;BME280;36247;51.952;6.146;2023-05-12T12:54:19;101713.91;;;22.77;100.00